Time;durP1;ratioP1;P1;durP2;ratioP2;P2;SDS_P1;SDS_P2;PMS_P1;PMS_P2;Temp;Humidity;BMP_temperature;BMP_pressure;BME280_temperature;BME280_humidity;BME280_pressure;Samples;Min_cycle;Max_cycle;Signal;HPM_P1;HPM_P2
2022/11/27 00:00:58;;;;;;;16.80;7.55;;;5.20;99.90;;;;;;5077001;28;20043;-87
2022/11/27 00:03:24;;;;;;;17.67;7.95;;;5.30;99.90;;;;;;5092585;28;20051;-88
2022/11/27 00:05:55;;;;;;;19.25;7.88;;;5.30;99.90;;;;;;5092411;28;20046;-86
2022/11/27 00:08:23;;;;;;;19.25;7.93;;;5.20;99.90;;;;;;5096994;28;20040;-88
2022/11/27 00:10:49;;;;;;;17.27;7.78;;;5.20;99.90;;;;;;5089870;28;20087;-88
2022/11/27 00:13:14;;;;;;;21.52;8.25;;;5.20;99.90;;;;;;5092286;28;20043;-87
2022/11/27 00:15:40;;;;;;;21.23;8.05;;;5.10;99.90;;;;;;5092430;28;20050;-88
2022/11/27 00:18:06;;;;;;;17.05;7.13;;;5.10;99.90;;;;;;5107361;28;20051;-88
2022/11/27 00:20:31;;;;;;;15.40;7.22;;;5.10;99.90;;;;;;5092391;28;20035;-89
2022/11/27 00:22:57;;;;;;;20.25;8.40;;;5.10;99.90;;;;;;5091862;28;20104;-88
2022/11/27 00:25:22;;;;;;;15.45;7.22;;;5.10;99.90;;;;;;5108555;28;20082;-88
2022/11/27 00:27:48;;;;;;;17.15;8.18;;;5.00;99.90;;;;;;5108680;28;20043;-88
2022/11/27 00:30:14;;;;;;;18.23;7.72;;;4.50;99.90;;;;;;5092039;28;20052;-88
2022/11/27 00:32:40;;;;;;;19.23;7.68;;;5.10;99.90;;;;;;5091252;28;20485;-88
2022/11/27 00:35:06;;;;;;;18.17;7.10;;;5.00;99.90;;;;;;5091894;28;20039;-88
2022/11/27 00:37:32;;;;;;;23.40;8.75;;;5.00;99.90;;;;;;5108742;28;20043;-88
2022/11/27 00:39:57;;;;;;;17.33;7.57;;;5.00;99.90;;;;;;5094033;28;20075;-88
2022/11/27 00:42:23;;;;;;;17.00;8.02;;;5.00;99.90;;;;;;5112513;28;20036;-89
2022/11/27 00:44:48;;;;;;;17.23;7.22;;;5.00;99.90;;;;;;5095404;28;20039;-88
2022/11/27 00:47:14;;;;;;;22.23;7.95;;;4.90;99.90;;;;;;5112871;28;20404;-87
2022/11/27 00:49:39;;;;;;;19.00;8.00;;;4.90;99.90;;;;;;5110483;28;20036;-88
2022/11/27 00:52:05;;;;;;;15.07;7.32;;;5.40;99.90;;;;;;5093900;28;20691;-88
2022/11/27 00:54:31;;;;;;;19.63;7.88;;;4.80;99.90;;;;;;5113298;28;20096;-89
2022/11/27 00:56:56;;;;;;;17.15;7.38;;;4.90;99.90;;;;;;5096089;28;20547;-88
2022/11/27 00:59:22;;;;;;;18.75;7.68;;;4.80;99.90;;;;;;5113255;28;20452;-89
2022/11/27 01:01:48;;;;;;;18.88;7.82;;;4.00;99.90;;;;;;5095731;28;20048;-87
2022/11/27 01:04:14;;;;;;;15.68;7.57;;;4.80;99.90;;;;;;5112173;28;20055;-88
2022/11/27 01:06:41;;;;;;;21.58;7.88;;;4.80;99.90;;;;;;5111502;28;20482;-87
2022/11/27 01:09:07;;;;;;;15.77;7.68;;;4.90;99.90;;;;;;5129280;27;20055;-86
2022/11/27 01:11:35;;;;;;;19.45;8.35;;;4.90;99.90;;;;;;5112828;28;20047;-88
2022/11/27 01:14:07;;;;;;;16.52;7.60;;;4.80;99.90;;;;;;5111922;28;20051;-88
2022/11/27 01:16:34;;;;;;;18.10;7.03;;;4.80;99.90;;;;;;5113508;28;20051;-87
2022/11/27 01:19:00;;;;;;;20.27;8.00;;;4.80;99.90;;;;;;5111818;28;20465;-88
2022/11/27 01:21:28;;;;;;;14.13;7.47;;;4.70;99.90;;;;;;5095122;28;20765;-88
2022/11/27 01:23:54;;;;;;;14.27;7.35;;;4.60;99.90;;;;;;5112202;28;20057;-87
2022/11/27 01:26:20;;;;;;;13.77;7.13;;;4.70;99.90;;;;;;5095501;28;20126;-89
2022/11/27 01:28:50;;;;;;;18.20;7.15;;;4.60;99.90;;;;;;5094883;28;20511;-87
2022/11/27 01:31:18;;;;;;;19.15;8.15;;;4.80;99.90;;;;;;5095614;28;20079;-87
2022/11/27 01:33:45;;;;;;;19.08;8.57;;;4.60;99.90;;;;;;5094516;28;20644;-87
2022/11/27 01:36:13;;;;;;;19.40;8.38;;;4.60;99.90;;;;;;5110432;28;20051;-88
2022/11/27 01:38:39;;;;;;;22.15;7.47;;;4.70;99.90;;;;;;5091493;28;20109;-88
2022/11/27 01:41:06;;;;;;;18.27;8.00;;;4.70;99.90;;;;;;5074094;28;20048;-87
2022/11/27 01:43:51;;;;;;;23.70;8.43;;;4.70;99.90;;;;;;5091039;28;20494;-87
2022/11/27 01:46:41;;;;;;;15.48;7.60;;;4.70;99.90;;;;;;5091374;28;20052;-87
2022/11/27 01:49:09;;;;;;;15.82;7.25;;;4.70;99.90;;;;;;5105949;28;20064;-89
2022/11/27 01:51:55;;;;;;;18.73;7.82;;;4.60;99.90;;;;;;5111908;28;20051;-87
2022/11/27 01:54:23;;;;;;;21.88;7.72;;;4.70;99.90;;;;;;5111560;28;20093;-88
2022/11/27 01:56:55;;;;;;;15.85;7.88;;;4.60;99.90;;;;;;5109408;28;20044;-89
2022/11/27 01:59:21;;;;;;;17.88;8.25;;;4.70;99.90;;;;;;5109774;28;20039;-89
2022/11/27 02:01:47;;;;;;;16.70;7.18;;;4.60;99.90;;;;;;5111457;28;20040;-88
2022/11/27 02:04:13;;;;;;;14.10;7.20;;;4.80;99.90;;;;;;5112747;28;20096;-88
2022/11/27 02:06:39;;;;;;;15.55;7.93;;;4.50;99.90;;;;;;5111375;28;20036;-88
2022/11/27 02:09:04;;;;;;;16.42;7.35;;;4.70;99.90;;;;;;5111146;28;20104;-88
2022/11/27 02:11:35;;;;;;;11.73;7.10;;;4.10;99.90;;;;;;5110298;28;20035;-88
2022/11/27 02:14:26;;;;;;;20.75;7.95;;;4.10;99.90;;;;;;5110847;28;20047;-89
2022/11/27 02:17:11;;;;;;;18.63;7.72;;;4.50;99.90;;;;;;5112917;28;20069;-87
2022/11/27 02:19:53;;;;;;;16.95;7.70;;;4.40;99.90;;;;;;5091058;28;20380;-88
2022/11/27 02:22:59;;;;;;;18.83;8.32;;;4.50;99.90;;;;;;5091022;28;20040;-88
2022/11/27 02:25:53;;;;;;;15.23;7.60;;;4.60;99.90;;;;;;5084060;28;20202;-88
2022/11/27 02:28:42;;;;;;;18.42;7.90;;;4.70;99.90;;;;;;5074458;28;20048;-89
2022/11/27 02:31:21;;;;;;;19.38;8.10;;;4.50;99.90;;;;;;5091847;28;20405;-88
2022/11/27 02:33:53;;;;;;;16.83;7.53;;;4.50;99.90;;;;;;5108670;28;20043;-87
2022/11/27 02:36:23;;;;;;;14.45;7.82;;;4.50;99.90;;;;;;5110198;28;20109;-90
2022/11/27 02:39:12;;;;;;;15.88;7.13;;;4.40;99.90;;;;;;5111080;28;20134;-88
2022/11/27 02:41:49;;;;;;;11.75;6.63;;;4.70;99.90;;;;;;5093538;28;20047;-89
2022/11/27 02:44:17;;;;;;;16.88;8.45;;;4.50;99.90;;;;;;5094323;28;20105;-88
2022/11/27 02:46:44;;;;;;;14.85;6.90;;;4.40;99.90;;;;;;5110756;28;20516;-87
2022/11/27 02:49:13;;;;;;;16.48;7.28;;;4.50;99.90;;;;;;5108746;28;20047;-88
2022/11/27 02:51:43;;;;;;;19.45;7.93;;;4.60;99.90;;;;;;5110905;28;20039;-86
2022/11/27 02:54:15;;;;;;;14.50;7.47;;;4.50;99.90;;;;;;5109968;28;20074;-89
2022/11/27 02:56:42;;;;;;;15.93;7.68;;;4.50;99.90;;;;;;5109688;28;20062;-89
2022/11/27 02:59:11;;;;;;;13.80;7.05;;;4.60;99.90;;;;;;5127007;27;20047;-89
2022/11/27 03:01:42;;;;;;;13.52;6.80;;;4.00;99.90;;;;;;5109506;28;20446;-88
2022/11/27 03:04:12;;;;;;;13.30;6.78;;;4.20;99.90;;;;;;5092016;28;20096;-87
2022/11/27 03:06:47;;;;;;;16.30;6.82;;;4.10;99.90;;;;;;5093548;28;20043;-89
2022/11/27 03:09:19;;;;;;;15.95;7.10;;;4.60;99.90;;;;;;5110527;28;20039;-88
2022/11/27 03:11:45;;;;;;;11.50;6.70;;;4.60;99.90;;;;;;5110597;28;20100;-89
2022/11/27 03:14:12;;;;;;;15.65;7.00;;;4.60;99.90;;;;;;5109569;28;20387;-89
2022/11/27 03:17:02;;;;;;;16.35;6.50;;;5.10;99.90;;;;;;5109288;28;20052;-86
2022/11/27 03:19:38;;;;;;;15.38;6.57;;;4.70;99.90;;;;;;5087501;28;20083;-89
2022/11/27 03:22:03;;;;;;;13.93;7.30;;;4.70;99.90;;;;;;5090078;28;20576;-88
2022/11/27 03:24:32;;;;;;;15.70;7.13;;;4.80;99.90;;;;;;5090000;28;20118;-89
2022/11/27 03:26:58;;;;;;;15.82;6.45;;;4.80;99.90;;;;;;5089658;28;20044;-87
2022/11/27 03:29:38;;;;;;;15.02;7.40;;;4.90;99.90;;;;;;5096084;28;20281;-88
2022/11/27 03:32:04;;;;;;;13.48;6.47;;;4.90;99.90;;;;;;5108311;28;20036;-88
2022/11/27 03:34:30;;;;;;;12.90;6.88;;;4.90;99.90;;;;;;5110588;28;20039;-89
2022/11/27 03:36:56;;;;;;;14.80;6.20;;;4.80;99.90;;;;;;5110139;28;20046;-89
2022/11/27 03:39:23;;;;;;;16.92;6.47;;;4.70;99.90;;;;;;5110295;28;20435;-89
2022/11/27 03:42:19;;;;;;;12.82;6.00;;;4.50;99.90;;;;;;5110208;28;20057;-87
2022/11/27 03:44:55;;;;;;;13.27;5.72;;;4.80;99.90;;;;;;5109866;28;20047;-89
2022/11/27 03:47:30;;;;;;;13.63;6.45;;;4.90;99.90;;;;;;5091994;28;20092;-90
2022/11/27 03:50:31;;;;;;;15.23;5.68;;;4.70;99.90;;;;;;5108973;28;20070;-87
2022/11/27 03:53:18;;;;;;;10.73;5.05;;;4.90;99.90;;;;;;5110500;28;20059;-88
2022/11/27 03:56:15;;;;;;;12.32;5.90;;;4.90;99.90;;;;;;5109485;28;20039;-88
2022/11/27 03:58:53;;;;;;;16.42;5.60;;;4.80;99.90;;;;;;5093250;28;20051;-89
2022/11/27 04:01:22;;;;;;;13.45;5.78;;;4.70;99.90;;;;;;5109948;28;20039;-88
2022/11/27 04:03:47;;;;;;;11.57;5.80;;;4.80;99.90;;;;;;5093073;28;20055;-89
2022/11/27 04:06:13;;;;;;;18.50;6.10;;;4.70;99.90;;;;;;5109204;28;20051;-88
2022/11/27 04:08:39;;;;;;;11.93;6.00;;;4.80;99.90;;;;;;5110056;28;20052;-88
2022/11/27 04:11:04;;;;;;;12.57;5.53;;;4.90;99.90;;;;;;5126261;28;20043;-89
2022/11/27 04:13:30;;;;;;;11.48;5.47;;;4.90;99.90;;;;;;5111849;28;20066;-87
2022/11/27 04:16:00;;;;;;;13.68;5.70;;;4.80;99.90;;;;;;5112637;28;20046;-90
2022/11/27 04:18:26;;;;;;;13.27;5.20;;;4.70;99.90;;;;;;5111633;28;20173;-89
2022/11/27 04:20:52;;;;;;;12.95;5.72;;;4.90;99.90;;;;;;5114490;28;20524;-89
2022/11/27 04:23:17;;;;;;;10.52;6.28;;;4.90;99.90;;;;;;5114069;28;20051;-89
2022/11/27 04:25:47;;;;;;;10.38;5.43;;;6.50;99.90;;;;;;5114400;28;20047;-89
2022/11/27 04:28:16;;;;;;;12.38;5.32;;;4.80;99.90;;;;;;5113852;28;20453;-88
2022/11/27 04:31:06;;;;;;;10.02;5.05;;;4.90;99.90;;;;;;5113603;28;20039;-90
2022/11/27 04:33:31;;;;;;;14.13;5.45;;;4.80;99.90;;;;;;5106518;28;20151;-88
2022/11/27 04:35:57;;;;;;;13.32;5.15;;;5.00;99.90;;;;;;5113666;28;20172;-89
2022/11/27 04:38:23;;;;;;;11.55;5.60;;;4.20;99.90;;;;;;5114413;28;20047;-88
2022/11/27 04:40:52;;;;;;;15.90;5.47;;;5.00;99.90;;;;;;5130499;27;20127;-88
2022/11/27 04:43:18;;;;;;;13.57;5.30;;;5.00;99.90;;;;;;5110403;28;20077;-88
2022/11/27 04:45:44;;;;;;;12.50;5.03;;;5.00;99.90;;;;;;5109781;28;20047;-89
2022/11/27 04:48:09;;;;;;;14.50;5.07;;;5.00;99.90;;;;;;5115031;28;20043;-88
2022/11/27 04:50:35;;;;;;;15.60;5.60;;;4.90;99.90;;;;;;5113761;28;20051;-89
2022/11/27 04:53:00;;;;;;;10.68;4.80;;;5.10;99.90;;;;;;5113872;28;20058;-88
2022/11/27 04:55:26;;;;;;;9.57;4.70;;;4.90;99.90;;;;;;5095265;28;20074;-90
2022/11/27 04:57:52;;;;;;;11.85;5.30;;;5.00;99.90;;;;;;5111019;28;20093;-89
2022/11/27 05:00:18;;;;;;;8.60;4.60;;;4.90;99.90;;;;;;5094892;28;20079;-88
2022/11/27 05:02:43;;;;;;;10.35;4.80;;;5.10;99.90;;;;;;5095229;28;20059;-88
2022/11/27 05:05:09;;;;;;;11.60;5.20;;;5.10;99.90;;;;;;5112865;28;20042;-89
2022/11/27 05:07:35;;;;;;;7.95;4.70;;;5.00;99.90;;;;;;5095849;28;20046;-88
2022/11/27 05:10:00;;;;;;;10.05;4.43;;;5.00;99.90;;;;;;5111759;28;20447;-89
2022/11/27 05:12:26;;;;;;;9.18;5.00;;;5.10;99.90;;;;;;5113169;28;20079;-89
2022/11/27 05:14:51;;;;;;;7.32;5.05;;;5.00;99.90;;;;;;5112953;28;20097;-89
2022/11/27 05:17:17;;;;;;;11.27;4.80;;;5.00;99.90;;;;;;5112741;28;20043;-88
2022/11/27 05:19:43;;;;;;;9.40;4.50;;;4.90;99.90;;;;;;5095334;28;20073;-86
2022/11/27 05:22:08;;;;;;;14.07;4.72;;;5.10;99.90;;;;;;5112083;28;20378;-89
2022/11/27 05:24:34;;;;;;;14.23;5.30;;;5.00;99.90;;;;;;5111457;28;20116;-89
2022/11/27 05:26:59;;;;;;;17.27;4.60;;;5.00;99.90;;;;;;5112755;28;20047;-89
2022/11/27 05:29:25;;;;;;;11.50;4.78;;;5.00;99.90;;;;;;5112355;28;20039;-88
2022/11/27 05:31:51;;;;;;;12.82;4.82;;;5.10;99.90;;;;;;5112176;28;20046;-88
2022/11/27 05:34:17;;;;;;;13.68;5.22;;;4.90;99.90;;;;;;5111260;28;20092;-89
2022/11/27 05:36:43;;;;;;;12.07;4.75;;;4.90;99.90;;;;;;5110876;28;20043;-90
2022/11/27 05:39:09;;;;;;;11.25;4.90;;;4.60;99.90;;;;;;5095385;28;20051;-88
2022/11/27 05:41:36;;;;;;;10.88;4.50;;;4.70;99.90;;;;;;5110896;28;20028;-90
2022/11/27 05:44:02;;;;;;;14.35;5.18;;;4.90;99.90;;;;;;5110883;28;20032;-87
2022/11/27 05:46:29;;;;;;;9.15;4.75;;;4.90;99.90;;;;;;5094083;28;20048;-89
2022/11/27 05:48:54;;;;;;;10.43;5.50;;;4.90;99.90;;;;;;5111504;28;20044;-89
2022/11/27 05:51:20;;;;;;;8.73;5.03;;;4.90;99.90;;;;;;5110731;28;20050;-90
2022/11/27 05:53:45;;;;;;;7.13;4.32;;;4.90;99.90;;;;;;5111935;28;20038;-88
2022/11/27 05:56:15;;;;;;;9.68;4.63;;;4.80;99.90;;;;;;5111689;28;20065;-90
2022/11/27 05:58:43;;;;;;;9.95;5.15;;;5.10;99.90;;;;;;5102161;28;20031;-88
2022/11/27 06:01:09;;;;;;;7.40;4.13;;;4.90;99.90;;;;;;5110536;28;20040;-89
2022/11/27 06:03:37;;;;;;;15.60;5.10;;;4.80;99.90;;;;;;5092384;28;20067;-88
2022/11/27 06:06:21;;;;;;;8.98;4.47;;;4.90;99.90;;;;;;5111161;28;20474;-88
2022/11/27 06:08:47;;;;;;;11.05;4.32;;;5.00;99.90;;;;;;5120782;27;20067;-89
2022/11/27 06:11:18;;;;;;;10.57;4.90;;;5.40;99.90;;;;;;5111066;28;20084;-89
2022/11/27 06:13:45;;;;;;;9.68;4.53;;;5.00;99.90;;;;;;5111477;28;20040;-88
2022/11/27 06:16:20;;;;;;;9.40;4.80;;;4.90;99.90;;;;;;5093598;28;20055;-89
2022/11/27 06:18:54;;;;;;;11.45;4.80;;;4.90;99.90;;;;;;5093994;28;20136;-90
2022/11/27 06:21:21;;;;;;;8.93;4.28;;;4.70;99.90;;;;;;5111063;28;20051;-89
2022/11/27 06:23:47;;;;;;;15.70;4.78;;;4.90;99.90;;;;;;5111881;28;20567;-88
2022/11/27 06:26:19;;;;;;;11.18;4.68;;;5.00;99.90;;;;;;5109930;28;20114;-89
2022/11/27 06:28:46;;;;;;;13.07;5.40;;;4.90;99.90;;;;;;5111509;28;20047;-90
2022/11/27 06:31:16;;;;;;;8.02;4.38;;;5.20;99.90;;;;;;5109125;28;20476;-89
2022/11/27 06:33:41;;;;;;;7.45;4.30;;;4.90;99.90;;;;;;5108854;28;20043;-89
2022/11/27 06:36:08;;;;;;;9.20;4.40;;;4.90;99.90;;;;;;5107319;28;20055;-89
2022/11/27 06:38:37;;;;;;;11.45;4.65;;;5.10;99.90;;;;;;5090648;28;20044;-87
2022/11/27 06:41:14;;;;;;;12.82;4.63;;;5.00;99.90;;;;;;5092786;28;20043;-89
2022/11/27 06:43:40;;;;;;;10.57;4.57;;;4.90;99.90;;;;;;5093710;28;20067;-88
2022/11/27 06:46:08;;;;;;;10.02;4.78;;;5.10;99.90;;;;;;5110454;28;20059;-88
2022/11/27 06:48:34;;;;;;;10.00;4.93;;;5.00;99.90;;;;;;5111381;28;20040;-89
2022/11/27 06:51:01;;;;;;;11.48;4.97;;;5.10;99.90;;;;;;5093214;28;20133;-88
2022/11/27 06:53:28;;;;;;;13.73;5.25;;;5.00;99.90;;;;;;5110049;27;20036;-89
2022/11/27 06:55:53;;;;;;;10.82;5.20;;;5.30;99.90;;;;;;5109169;28;20051;-89
2022/11/27 06:58:19;;;;;;;10.75;4.57;;;5.10;99.90;;;;;;5108182;28;20068;-87
2022/11/27 07:00:44;;;;;;;14.60;4.97;;;5.10;99.90;;;;;;5103454;28;20044;-88
2022/11/27 07:03:10;;;;;;;9.68;5.35;;;5.00;99.90;;;;;;5110084;27;20059;-89
2022/11/27 07:05:36;;;;;;;13.68;5.80;;;5.10;99.90;;;;;;5110640;28;20482;-89
2022/11/27 07:08:05;;;;;;;11.02;5.10;;;5.10;99.90;;;;;;5110883;28;20040;-90
2022/11/27 07:10:35;;;;;;;11.13;5.15;;;6.20;99.90;;;;;;5111282;28;20058;-90
2022/11/27 07:13:01;;;;;;;11.95;5.80;;;5.00;99.90;;;;;;5110179;27;20169;-87
2022/11/27 07:15:26;;;;;;;8.15;4.57;;;4.80;99.90;;;;;;5107079;27;20056;-87
2022/11/27 07:17:52;;;;;;;12.38;5.18;;;5.10;99.90;;;;;;5104437;27;20043;-89
2022/11/27 07:20:17;;;;;;;9.48;5.78;;;4.90;99.90;;;;;;5076730;28;20048;-87
2022/11/27 07:22:43;;;;;;;12.90;5.40;;;4.90;99.90;;;;;;5108652;28;20501;-88
2022/11/27 07:25:09;;;;;;;10.48;5.60;;;5.10;99.90;;;;;;5108436;28;20241;-87
2022/11/27 07:27:34;;;;;;;8.57;5.40;;;5.10;99.90;;;;;;5111202;28;20068;-88
2022/11/27 07:30:00;;;;;;;11.38;5.25;;;5.10;99.90;;;;;;5110074;28;20077;-87
2022/11/27 07:32:25;;;;;;;10.88;5.28;;;5.10;99.90;;;;;;5109348;28;20047;-87
2022/11/27 07:34:51;;;;;;;11.88;6.28;;;5.10;99.90;;;;;;5109312;28;20370;-89
2022/11/27 07:37:19;;;;;;;9.20;5.53;;;5.20;99.90;;;;;;5111177;28;20040;-89
2022/11/27 07:39:44;;;;;;;13.73;5.85;;;5.10;99.90;;;;;;5110761;28;20056;-89
2022/11/27 07:42:10;;;;;;;8.88;5.20;;;5.20;99.90;;;;;;5108411;28;20118;-89
2022/11/27 07:44:36;;;;;;;9.82;5.95;;;5.20;99.90;;;;;;5109121;28;20212;-88
2022/11/27 07:47:04;;;;;;;29.58;8.02;;;5.20;99.90;;;;;;5109514;28;20046;-89
2022/11/27 07:49:30;;;;;;;10.20;4.88;;;5.20;99.90;;;;;;5107154;28;20039;-87
2022/11/27 07:51:55;;;;;;;12.68;5.55;;;5.20;99.90;;;;;;5107033;28;20172;-87
2022/11/27 07:54:21;;;;;;;11.55;6.15;;;5.30;99.90;;;;;;5108523;28;20097;-89
2022/11/27 07:56:46;;;;;;;12.18;6.60;;;5.20;99.90;;;;;;5108932;28;20051;-88
2022/11/27 07:59:12;;;;;;;13.82;6.40;;;5.30;99.90;;;;;;5105275;28;20048;-87
2022/11/27 08:01:37;;;;;;;12.30;5.60;;;5.30;99.90;;;;;;5101611;28;20123;-88
2022/11/27 08:04:03;;;;;;;13.73;6.38;;;5.30;99.90;;;;;;5107487;28;20134;-89
2022/11/27 08:06:29;;;;;;;10.95;6.30;;;5.30;99.90;;;;;;5108341;28;20042;-87
2022/11/27 08:08:55;;;;;;;8.00;5.28;;;5.30;99.90;;;;;;5108830;28;20513;-90
2022/11/27 08:11:28;;;;;;;10.60;4.75;;;5.40;99.90;;;;;;5090871;28;20051;-89
2022/11/27 08:13:59;;;;;;;11.30;5.85;;;5.40;99.90;;;;;;5107608;28;20042;-89
2022/11/27 08:16:25;;;;;;;9.27;5.63;;;5.40;99.90;;;;;;5108345;28;20036;-90
2022/11/27 08:18:51;;;;;;;13.43;6.63;;;5.50;99.90;;;;;;5106976;28;20051;-89
2022/11/27 08:21:17;;;;;;;12.50;5.97;;;5.50;99.90;;;;;;5109308;28;20043;-90
2022/11/27 08:23:43;;;;;;;10.55;5.97;;;5.80;99.90;;;;;;5091432;28;20039;-89
2022/11/27 08:26:10;;;;;;;12.32;6.03;;;5.60;99.90;;;;;;5107920;28;20048;-89
2022/11/27 08:28:37;;;;;;;12.25;5.53;;;5.60;99.90;;;;;;5108340;28;20048;-89
2022/11/27 08:31:06;;;;;;;13.45;5.97;;;5.60;99.90;;;;;;5108714;28;20040;-89
2022/11/27 08:33:33;;;;;;;11.00;6.05;;;5.60;99.90;;;;;;5107965;28;20089;-90
2022/11/27 08:35:59;;;;;;;11.73;6.07;;;5.60;99.90;;;;;;5107955;28;20039;-89
2022/11/27 08:38:25;;;;;;;11.82;5.75;;;5.70;99.90;;;;;;5090540;28;20054;-89
2022/11/27 08:40:59;;;;;;;11.50;5.57;;;5.70;99.90;;;;;;5108121;28;20103;-92
2022/11/27 08:43:25;;;;;;;12.68;6.28;;;5.70;99.90;;;;;;5090980;28;20115;-91
2022/11/27 08:45:51;;;;;;;15.65;6.13;;;5.70;99.90;;;;;;5090415;28;20547;-90
2022/11/27 08:48:18;;;;;;;10.93;6.03;;;5.70;99.90;;;;;;5090463;28;20048;-85
2022/11/27 08:50:44;;;;;;;17.42;6.88;;;5.70;99.90;;;;;;5106006;28;20054;-86
2022/11/27 08:53:10;;;;;;;11.68;5.68;;;5.80;99.90;;;;;;5108334;28;20114;-89
2022/11/27 08:55:35;;;;;;;9.13;5.97;;;5.80;99.90;;;;;;5106140;28;20075;-88
2022/11/27 08:58:02;;;;;;;14.18;6.78;;;5.80;99.90;;;;;;5107440;28;20554;-87
2022/11/27 09:00:29;;;;;;;12.95;6.57;;;5.80;99.90;;;;;;5091296;28;20042;-90
2022/11/27 09:02:54;;;;;;;11.95;6.32;;;5.80;99.90;;;;;;5110022;28;20087;-90
2022/11/27 09:05:20;;;;;;;11.23;6.50;;;5.80;99.90;;;;;;5095086;28;20463;-90
2022/11/27 09:07:46;;;;;;;14.57;6.60;;;5.80;99.90;;;;;;5111144;28;20496;-90
2022/11/27 09:10:12;;;;;;;11.88;5.85;;;5.80;99.90;;;;;;5110734;28;20122;-89
2022/11/27 09:12:37;;;;;;;12.80;6.38;;;5.90;99.90;;;;;;5111108;28;20046;-90
2022/11/27 09:15:03;;;;;;;12.57;6.43;;;5.90;99.90;;;;;;5093962;28;20074;-88
2022/11/27 09:17:29;;;;;;;12.75;6.82;;;5.90;99.90;;;;;;5093410;28;20043;-87
2022/11/27 09:19:55;;;;;;;15.68;9.00;;;5.90;99.90;;;;;;5093132;28;20146;-90
2022/11/27 09:22:21;;;;;;;11.65;6.95;;;5.90;99.90;;;;;;5093717;28;20047;-90
2022/11/27 09:24:46;;;;;;;11.80;7.03;;;5.90;99.90;;;;;;5093865;28;20086;-89
2022/11/27 09:27:12;;;;;;;11.95;6.32;;;5.90;99.90;;;;;;5109992;28;20048;-89
2022/11/27 09:29:38;;;;;;;15.55;6.20;;;6.00;99.90;;;;;;5093636;28;20046;-88
2022/11/27 09:32:03;;;;;;;12.13;6.32;;;5.90;99.90;;;;;;5110847;28;20094;-89
2022/11/27 09:34:29;;;;;;;16.48;7.13;;;5.90;99.90;;;;;;5111749;27;20040;-89
2022/11/27 09:36:55;;;;;;;11.85;6.75;;;5.90;99.90;;;;;;5108519;28;20059;-89
2022/11/27 09:39:21;;;;;;;13.90;6.95;;;6.00;99.90;;;;;;5091732;28;20047;-89
2022/11/27 09:42:03;;;;;;;10.88;6.10;;;6.00;99.90;;;;;;5092143;28;20090;-88
2022/11/27 09:44:35;;;;;;;14.07;6.83;;;5.90;99.90;;;;;;5110509;28;20095;-89
2022/11/27 09:47:20;;;;;;;14.30;6.30;;;5.90;99.90;;;;;;5089482;28;20132;-88
2022/11/27 09:50:24;;;;;;;11.43;5.97;;;5.90;99.90;;;;;;5108874;28;20801;-89
2022/11/27 09:52:54;;;;;;;11.85;6.60;;;5.90;99.90;;;;;;5081260;28;20122;-88
2022/11/27 09:55:36;;;;;;;8.95;5.85;;;5.90;99.90;;;;;;5100440;27;20083;-88
2022/11/27 09:58:12;;;;;;;12.20;6.80;;;5.90;99.90;;;;;;5111244;28;20052;-88
2022/11/27 10:00:37;;;;;;;13.00;6.78;;;5.90;99.90;;;;;;5091751;28;20122;-90
2022/11/27 10:03:10;;;;;;;11.80;6.43;;;6.00;99.90;;;;;;5110450;28;20539;-87
2022/11/27 10:05:56;;;;;;;13.45;6.50;;;5.90;99.90;;;;;;5109877;28;20048;-87
2022/11/27 10:08:46;;;;;;;12.30;6.68;;;6.00;99.90;;;;;;5109156;28;20055;-87
2022/11/27 10:11:29;;;;;;;16.58;7.15;;;6.00;99.90;;;;;;5109763;28;20044;-87
2022/11/27 10:14:01;;;;;;;14.68;8.02;;;6.00;99.90;;;;;;5092784;28;20052;-86
2022/11/27 10:16:41;;;;;;;12.52;6.97;;;6.00;99.90;;;;;;5109509;28;20051;-88
2022/11/27 10:19:48;;;;;;;13.43;6.55;;;6.00;99.90;;;;;;5089619;28;20054;-86
2022/11/27 10:22:48;;;;;;;13.13;6.38;;;6.00;99.90;;;;;;5107252;28;20108;-85
2022/11/27 10:25:47;;;;;;;11.60;6.22;;;6.00;99.90;;;;;;5089605;28;20063;-85
2022/11/27 10:28:27;;;;;;;16.35;6.72;;;6.00;99.90;;;;;;5108913;28;20108;-86
2022/11/27 10:31:13;;;;;;;10.60;6.50;;;6.00;99.90;;;;;;5108140;28;20458;-86
2022/11/27 10:33:47;;;;;;;12.73;6.35;;;6.00;99.90;;;;;;5109925;28;20046;-85
2022/11/27 10:36:38;;;;;;;14.73;6.25;;;6.10;99.90;;;;;;5108296;28;20132;-86
2022/11/27 10:39:11;;;;;;;11.00;6.78;;;6.10;99.90;;;;;;5107596;28;20114;-85
2022/11/27 10:41:46;;;;;;;11.93;6.90;;;6.10;99.90;;;;;;5107938;28;20052;-86
2022/11/27 10:44:35;;;;;;;13.00;6.45;;;6.10;99.90;;;;;;5108186;28;20051;-86
2022/11/27 10:47:03;;;;;;;13.30;6.78;;;6.20;99.90;;;;;;5105019;28;20050;-84
2022/11/27 10:49:29;;;;;;;9.20;6.95;;;6.10;99.90;;;;;;5107162;28;20055;-82
2022/11/27 10:51:55;;;;;;;11.73;6.78;;;6.10;99.90;;;;;;5108783;28;20453;-81
2022/11/27 10:54:35;;;;;;;10.90;6.72;;;6.10;99.90;;;;;;5095522;28;20126;-81
2022/11/27 10:57:27;;;;;;;15.07;6.57;;;6.10;99.90;;;;;;5090375;28;20408;-81
2022/11/27 11:00:10;;;;;;;14.60;6.70;;;6.10;99.90;;;;;;5107761;28;20128;-81
2022/11/27 11:02:37;;;;;;;13.27;6.68;;;6.20;99.90;;;;;;5108817;28;20074;-82
2022/11/27 11:05:10;;;;;;;11.35;6.30;;;6.20;99.90;;;;;;5100712;28;20046;-81
2022/11/27 11:07:35;;;;;;;13.93;6.85;;;6.20;99.90;;;;;;5101123;28;20122;-81
2022/11/27 11:10:01;;;;;;;14.02;6.78;;;6.20;99.90;;;;;;5105098;28;20517;-82
2022/11/27 11:12:26;;;;;;;11.73;7.72;;;6.20;99.90;;;;;;5100861;28;20044;-82
2022/11/27 11:14:53;;;;;;;14.98;7.47;;;6.30;99.90;;;;;;5101539;28;20032;-82
2022/11/27 11:17:37;;;;;;;11.93;6.30;;;6.30;99.90;;;;;;5107482;28;20055;-82
2022/11/27 11:20:22;;;;;;;13.43;6.45;;;6.20;99.90;;;;;;5107337;28;20055;-82
2022/11/27 11:22:49;;;;;;;11.40;6.72;;;6.30;99.90;;;;;;5099937;27;20090;-81
2022/11/27 11:25:20;;;;;;;12.27;7.13;;;6.20;99.90;;;;;;5106037;28;20051;-81
2022/11/27 11:27:46;;;;;;;13.82;6.82;;;6.30;99.90;;;;;;5103528;28;20042;-81
2022/11/27 11:30:42;;;;;;;9.95;6.47;;;6.30;99.90;;;;;;5101005;28;20157;-82
2022/11/27 11:33:11;;;;;;;9.82;6.65;;;6.30;99.90;;;;;;5097614;27;20059;-81
2022/11/27 11:35:37;;;;;;;9.93;6.28;;;6.30;99.90;;;;;;5111921;27;20046;-86
2022/11/27 11:38:11;;;;;;;10.95;6.80;;;6.40;99.90;;;;;;5107389;27;20051;-86
2022/11/27 11:40:37;;;;;;;14.05;6.97;;;6.40;99.90;;;;;;5101930;28;20082;-85
2022/11/27 11:43:27;;;;;;;13.88;6.50;;;7.20;99.90;;;;;;5102652;28;20114;-85
2022/11/27 11:45:55;;;;;;;13.07;6.68;;;6.40;99.90;;;;;;5108576;27;20135;-85
2022/11/27 11:48:25;;;;;;;12.25;6.78;;;6.40;99.90;;;;;;5101973;28;20040;-86
2022/11/27 11:50:58;;;;;;;14.23;6.88;;;6.40;99.90;;;;;;5107231;28;20122;-85
2022/11/27 11:53:35;;;;;;;13.32;6.97;;;6.50;99.90;;;;;;5112110;27;20096;-86
2022/11/27 11:56:03;;;;;;;11.75;6.32;;;6.50;99.90;;;;;;5096132;28;20050;-86
2022/11/27 11:58:57;;;;;;;12.50;7.28;;;6.50;99.90;;;;;;5106172;28;20406;-85
2022/11/27 12:01:38;;;;;;;12.32;6.25;;;6.50;99.90;;;;;;5094232;28;20111;-85
2022/11/27 12:04:28;;;;;;;11.35;6.47;;;6.60;99.90;;;;;;5097514;28;20058;-86
2022/11/27 12:07:00;;;;;;;11.35;7.05;;;6.60;99.90;;;;;;5104660;28;20035;-85
2022/11/27 12:09:46;;;;;;;11.77;6.60;;;6.60;99.90;;;;;;5086372;28;20082;-85
2022/11/27 12:12:22;;;;;;;12.63;6.50;;;6.60;99.90;;;;;;5086048;28;20572;-85
2022/11/27 12:15:02;;;;;;;13.95;7.55;;;6.60;99.90;;;;;;5104422;28;20096;-86
2022/11/27 12:17:52;;;;;;;12.48;6.50;;;6.50;99.90;;;;;;5106319;28;20483;-86
2022/11/27 12:20:40;;;;;;;11.18;6.72;;;6.60;99.90;;;;;;5106678;28;20051;-86
2022/11/27 12:23:37;;;;;;;13.13;7.53;;;6.60;99.90;;;;;;5089312;28;20425;-85
2022/11/27 12:26:40;;;;;;;11.70;6.95;;;6.70;99.90;;;;;;5106295;28;20517;-85
2022/11/27 12:29:15;;;;;;;;;;;6.70;99.90;;;;;;5107005;28;20050;-85
2022/11/27 12:32:05;;;;;;;12.52;6.15;;;6.70;99.90;;;;;;5106413;28;20671;-85
2022/11/27 12:34:53;;;;;;;10.30;6.65;;;6.70;99.90;;;;;;5103970;28;20451;-84
2022/11/27 12:37:28;;;;;;;10.20;5.65;;;6.70;99.90;;;;;;5110401;28;20108;-84
2022/11/27 12:40:16;;;;;;;13.18;6.50;;;6.60;99.90;;;;;;5107278;28;20039;-86
2022/11/27 12:43:05;;;;;;;10.77;6.63;;;6.70;99.90;;;;;;5106312;28;20036;-86
2022/11/27 12:45:46;;;;;;;9.10;5.80;;;6.70;99.90;;;;;;5107168;28;20134;-84
2022/11/27 12:48:19;;;;;;;15.05;7.43;;;6.70;99.90;;;;;;5103416;28;20047;-85
2022/11/27 12:50:50;;;;;;;15.40;6.45;;;6.70;99.90;;;;;;5074911;28;20127;-84
2022/11/27 12:53:41;;;;;;;10.85;6.68;;;6.80;99.90;;;;;;5107551;28;20067;-85
2022/11/27 12:56:36;;;;;;;9.95;6.30;;;6.80;99.90;;;;;;5110063;28;20058;-84
2022/11/27 12:59:32;;;;;;;11.23;6.15;;;6.80;99.90;;;;;;5108595;28;20047;-83
2022/11/27 13:02:00;;;;;;;8.70;5.88;;;6.80;99.90;;;;;;5113506;27;20063;-84
2022/11/27 13:05:09;;;;;;;10.95;6.60;;;6.80;99.90;;;;;;5092586;28;20048;-84
2022/11/27 13:07:56;;;;;;;9.25;6.32;;;6.80;99.90;;;;;;5109202;28;20056;-84
2022/11/27 13:10:40;;;;;;;9.65;6.68;;;6.80;99.90;;;;;;5103504;28;20104;-84